Impacts TAF Board
For situational awareness. Not to be used for flight planning purposes.
IDs:

KTOI - Troy Muni, AL, US

Issued at 1202 UTC 23 Jan 2019
Updated at 1727 UTC 23 Jan 2019
Potential Impact None Slight Moderate High
Time1653Z 23/18Z 23/19Z 23/20Z 23/21Z 23/22Z 23/23Z 24/00Z 24/01Z 24/02Z 24/03Z 24/04Z 24/05Z 24/06Z>>
Type OBS PRVL PRVL PRVL PRVL PRVL PRVL PRVL PRVL PRVL PRVL PRVL PRVL PRVL
VIS 10 >6 >6 >6 >6 >6 >6 >6 4 4 4 4 >6 >6
CIG 70 25 15 15 15 15 15 15 15 15 15 15 10 10
Cover OVC OVC OVC OVC OVC OVC OVC OVC OVC OVC OVC OVC OVC OVC
FltCat VFR MVFR MVFR MVFR MVFR MVFR MVFR MVFR MVFR MVFR MVFR MVFR MVFR MVFR
WX -- -- -SHRA VCTS -SHRA VCTS -SHRA VCTS -SHRA VCTS -SHRA VCTS -SHRA VCTS -SHRA VCTS -SHRA VCTS -SHRA VCTS -SHRA VCTS -RA -RA
WDir 150 120 160 160 160 160 160 160 210 210 210 210 310 310
WSpd 15 14 18 18 18 18 18 18 17 17 17 17 14 14
WGst 21 20 25 25 25 25 25 25 22 22 22 22 20 20
Raw TAF
KTOI 231202Z 2312/2412 14010G18KT P6SM OVC060
  FM231400 12014G20KT P6SM OVC025
  FM231900 16018G25KT P6SM -SHRA VCTS OVC015CB
  FM240100 21017G22KT 4SM -SHRA VCTS OVC015CB
  FM240500 31014G20KT P6SM -RA OVC010
  FM241000 30010KT P6SM OVC010


Raw METAR
KTOI 231653Z AUTO 15015G21KT 10SM FEW028 BKN070 OVC085 19/13 A3001 RMK AO2 PK WND 16030/1557 SLP161 T01940128
KTOI 231553Z AUTO 14015G21KT 10SM OVC080 18/12 A3004 RMK AO2 SLP170 T01830122
KTOI 231453Z AUTO 15013G22KT 10SM BKN035 BKN090 17/12 A3008 RMK AO2 PK WND 13026/1355 SLP184 T01720122 55010

METAR Board
Radar Display
Forecast Discussion
For situational awareness. Not to be used for flight planning purposes.